sensor_id;sensor_type;location;lat;lon;timestamp;P1;durP1;ratioP1;P2;durP2;ratioP2
48743;SDS011;34538;48.836;9.174;2022-11-21T00:01:15;0.30;;;0.30;;
48743;SDS011;34538;48.836;9.174;2022-11-21T00:03:45;1.67;;;0.45;;
48743;SDS011;34538;48.836;9.174;2022-11-21T00:06:12;2.20;;;0.70;;
48743;SDS011;34538;48.836;9.174;2022-11-21T00:08:39;1.60;;;0.45;;
48743;SDS011;34538;48.836;9.174;2022-11-21T00:11:06;1.15;;;0.38;;
48743;SDS011;34538;48.836;9.174;2022-11-21T00:13:33;0.63;;;0.60;;
48743;SDS011;34538;48.836;9.174;2022-11-21T00:16:03;1.85;;;0.57;;
48743;SDS011;34538;48.836;9.174;2022-11-21T00:18:31;0.90;;;0.40;;
48743;SDS011;34538;48.836;9.174;2022-11-21T00:21:03;1.42;;;0.40;;
48743;SDS011;34538;48.836;9.174;2022-11-21T00:23:31;0.75;;;0.30;;
48743;SDS011;34538;48.836;9.174;2022-11-21T00:25:58;1.80;;;0.43;;
48743;SDS011;34538;48.836;9.174;2022-11-21T00:28:29;1.10;;;0.57;;
48743;SDS011;34538;48.836;9.174;2022-11-21T00:30:56;3.05;;;0.40;;
48743;SDS011;34538;48.836;9.174;2022-11-21T00:33:22;0.50;;;0.35;;
48743;SDS011;34538;48.836;9.174;2022-11-21T00:35:49;0.32;;;0.30;;
48743;SDS011;34538;48.836;9.174;2022-11-21T00:38:17;1.95;;;0.38;;
48743;SDS011;34538;48.836;9.174;2022-11-21T00:40:44;1.35;;;0.20;;
48743;SDS011;34538;48.836;9.174;2022-11-21T00:43:11;0.17;;;0.15;;
48743;SDS011;34538;48.836;9.174;2022-11-21T00:45:38;0.40;;;0.30;;
48743;SDS011;34538;48.836;9.174;2022-11-21T00:48:05;0.60;;;0.30;;
48743;SDS011;34538;48.836;9.174;2022-11-21T00:50:32;0.85;;;0.30;;
48743;SDS011;34538;48.836;9.174;2022-11-21T00:52:59;0.65;;;0.50;;
48743;SDS011;34538;48.836;9.174;2022-11-21T00:55:27;0.30;;;0.30;;
48743;SDS011;34538;48.836;9.174;2022-11-21T00:57:54;0.43;;;0.38;;
48743;SDS011;34538;48.836;9.174;2022-11-21T01:00:21;0.45;;;0.25;;
48743;SDS011;34538;48.836;9.174;2022-11-21T01:02:48;0.82;;;0.20;;
48743;SDS011;34538;48.836;9.174;2022-11-21T01:05:15;1.70;;;0.30;;
48743;SDS011;34538;48.836;9.174;2022-11-21T01:07:42;0.50;;;0.40;;
48743;SDS011;34538;48.836;9.174;2022-11-21T01:10:09;0.32;;;0.32;;
48743;SDS011;34538;48.836;9.174;2022-11-21T01:12:37;0.50;;;0.40;;
48743;SDS011;34538;48.836;9.174;2022-11-21T01:15:04;0.82;;;0.30;;
48743;SDS011;34538;48.836;9.174;2022-11-21T01:17:32;0.65;;;0.38;;
48743;SDS011;34538;48.836;9.174;2022-11-21T01:19:59;3.67;;;0.68;;
48743;SDS011;34538;48.836;9.174;2022-11-21T01:22:26;1.45;;;0.73;;
48743;SDS011;34538;48.836;9.174;2022-11-21T01:24:52;1.30;;;0.50;;
48743;SDS011;34538;48.836;9.174;2022-11-21T01:27:19;1.13;;;0.38;;
48743;SDS011;34538;48.836;9.174;2022-11-21T01:29:47;0.82;;;0.45;;
48743;SDS011;34538;48.836;9.174;2022-11-21T01:32:16;1.45;;;0.70;;
48743;SDS011;34538;48.836;9.174;2022-11-21T01:34:43;1.83;;;0.38;;
48743;SDS011;34538;48.836;9.174;2022-11-21T01:37:10;1.58;;;0.60;;
48743;SDS011;34538;48.836;9.174;2022-11-21T01:39:37;0.50;;;0.50;;
48743;SDS011;34538;48.836;9.174;2022-11-21T01:42:04;1.85;;;0.68;;
48743;SDS011;34538;48.836;9.174;2022-11-21T01:44:44;2.08;;;0.38;;
48743;SDS011;34538;48.836;9.174;2022-11-21T01:47:13;1.77;;;0.70;;
48743;SDS011;34538;48.836;9.174;2022-11-21T01:49:41;4.13;;;0.60;;
48743;SDS011;34538;48.836;9.174;2022-11-21T01:52:09;0.98;;;0.30;;
48743;SDS011;34538;48.836;9.174;2022-11-21T01:54:42;2.35;;;0.38;;
48743;SDS011;34538;48.836;9.174;2022-11-21T01:57:12;1.27;;;0.38;;
48743;SDS011;34538;48.836;9.174;2022-11-21T01:59:43;0.40;;;0.40;;
48743;SDS011;34538;48.836;9.174;2022-11-21T02:02:16;0.40;;;0.32;;
48743;SDS011;34538;48.836;9.174;2022-11-21T02:04:46;0.52;;;0.35;;
48743;SDS011;34538;48.836;9.174;2022-11-21T02:07:16;0.55;;;0.40;;
48743;SDS011;34538;48.836;9.174;2022-11-21T02:09:45;2.38;;;0.40;;
48743;SDS011;34538;48.836;9.174;2022-11-21T02:12:16;1.80;;;0.35;;
48743;SDS011;34538;48.836;9.174;2022-11-21T02:14:48;2.88;;;0.40;;
48743;SDS011;34538;48.836;9.174;2022-11-21T02:17:17;0.85;;;0.40;;
48743;SDS011;34538;48.836;9.174;2022-11-21T02:19:46;1.20;;;0.40;;
48743;SDS011;34538;48.836;9.174;2022-11-21T02:22:20;2.40;;;0.50;;
48743;SDS011;34538;48.836;9.174;2022-11-21T02:25:01;1.40;;;0.60;;
48743;SDS011;34538;48.836;9.174;2022-11-21T02:27:31;0.75;;;0.40;;
48743;SDS011;34538;48.836;9.174;2022-11-21T02:29:58;0.77;;;0.40;;
48743;SDS011;34538;48.836;9.174;2022-11-21T02:32:30;1.80;;;0.50;;
48743;SDS011;34538;48.836;9.174;2022-11-21T02:34:59;2.05;;;0.50;;
48743;SDS011;34538;48.836;9.174;2022-11-21T02:37:26;1.30;;;0.50;;
48743;SDS011;34538;48.836;9.174;2022-11-21T02:39:54;0.30;;;0.20;;
48743;SDS011;34538;48.836;9.174;2022-11-21T02:42:25;2.80;;;0.65;;
48743;SDS011;34538;48.836;9.174;2022-11-21T02:44:56;1.00;;;0.40;;
48743;SDS011;34538;48.836;9.174;2022-11-21T02:47:31;1.98;;;0.30;;
48743;SDS011;34538;48.836;9.174;2022-11-21T02:50:02;1.15;;;0.47;;
48743;SDS011;34538;48.836;9.174;2022-11-21T02:52:35;1.73;;;0.40;;
48743;SDS011;34538;48.836;9.174;2022-11-21T02:55:02;0.85;;;0.20;;
48743;SDS011;34538;48.836;9.174;2022-11-21T02:57:31;0.32;;;0.20;;
48743;SDS011;34538;48.836;9.174;2022-11-21T02:59:58;1.10;;;0.30;;
48743;SDS011;34538;48.836;9.174;2022-11-21T03:02:25;1.08;;;0.38;;
48743;SDS011;34538;48.836;9.174;2022-11-21T03:04:52;1.10;;;0.30;;
48743;SDS011;34538;48.836;9.174;2022-11-21T03:07:18;0.90;;;0.30;;
48743;SDS011;34538;48.836;9.174;2022-11-21T03:09:45;2.10;;;0.22;;
48743;SDS011;34538;48.836;9.174;2022-11-21T03:12:12;0.57;;;0.30;;
48743;SDS011;34538;48.836;9.174;2022-11-21T03:14:40;0.77;;;0.40;;
48743;SDS011;34538;48.836;9.174;2022-11-21T03:17:07;0.25;;;0.25;;
48743;SDS011;34538;48.836;9.174;2022-11-21T03:19:34;0.68;;;0.30;;
48743;SDS011;34538;48.836;9.174;2022-11-21T03:22:01;0.38;;;0.30;;
48743;SDS011;34538;48.836;9.174;2022-11-21T03:24:28;0.20;;;0.20;;
48743;SDS011;34538;48.836;9.174;2022-11-21T03:26:55;0.45;;;0.30;;
48743;SDS011;34538;48.836;9.174;2022-11-21T03:29:22;2.10;;;0.30;;
48743;SDS011;34538;48.836;9.174;2022-11-21T03:31:50;0.25;;;0.25;;
48743;SDS011;34538;48.836;9.174;2022-11-21T03:34:17;0.40;;;0.20;;
48743;SDS011;34538;48.836;9.174;2022-11-21T03:36:44;0.32;;;0.30;;
48743;SDS011;34538;48.836;9.174;2022-11-21T03:39:11;0.40;;;0.20;;
48743;SDS011;34538;48.836;9.174;2022-11-21T03:41:37;0.28;;;0.28;;
48743;SDS011;34538;48.836;9.174;2022-11-21T03:44:05;0.95;;;0.20;;
48743;SDS011;34538;48.836;9.174;2022-11-21T03:46:34;0.20;;;0.10;;
48743;SDS011;34538;48.836;9.174;2022-11-21T03:49:04;0.47;;;0.30;;
48743;SDS011;34538;48.836;9.174;2022-11-21T03:51:32;0.10;;;0.10;;
48743;SDS011;34538;48.836;9.174;2022-11-21T03:53:59;0.30;;;0.25;;
48743;SDS011;34538;48.836;9.174;2022-11-21T03:56:26;0.32;;;0.20;;
48743;SDS011;34538;48.836;9.174;2022-11-21T03:58:53;0.98;;;0.30;;
48743;SDS011;34538;48.836;9.174;2022-11-21T04:01:20;0.50;;;0.30;;
48743;SDS011;34538;48.836;9.174;2022-11-21T04:03:47;0.30;;;0.30;;
48743;SDS011;34538;48.836;9.174;2022-11-21T04:06:16;0.85;;;0.40;;
48743;SDS011;34538;48.836;9.174;2022-11-21T04:08:44;0.77;;;0.43;;
48743;SDS011;34538;48.836;9.174;2022-11-21T04:11:11;1.55;;;0.30;;
48743;SDS011;34538;48.836;9.174;2022-11-21T04:13:38;0.20;;;0.20;;
48743;SDS011;34538;48.836;9.174;2022-11-21T04:16:05;0.43;;;0.28;;
48743;SDS011;34538;48.836;9.174;2022-11-21T04:18:32;1.85;;;0.40;;
48743;SDS011;34538;48.836;9.174;2022-11-21T04:21:00;1.50;;;0.40;;
48743;SDS011;34538;48.836;9.174;2022-11-21T04:23:30;0.30;;;0.22;;
48743;SDS011;34538;48.836;9.174;2022-11-21T04:25:57;0.73;;;0.30;;
48743;SDS011;34538;48.836;9.174;2022-11-21T04:28:24;1.13;;;0.40;;
48743;SDS011;34538;48.836;9.174;2022-11-21T04:30:51;0.85;;;0.38;;
48743;SDS011;34538;48.836;9.174;2022-11-21T04:33:18;1.20;;;0.50;;
48743;SDS011;34538;48.836;9.174;2022-11-21T04:35:45;1.02;;;0.60;;
48743;SDS011;34538;48.836;9.174;2022-11-21T04:38:12;0.73;;;0.40;;
48743;SDS011;34538;48.836;9.174;2022-11-21T04:40:41;5.90;;;2.20;;
48743;SDS011;34538;48.836;9.174;2022-11-21T04:43:09;1.00;;;0.60;;
48743;SDS011;34538;48.836;9.174;2022-11-21T04:45:36;1.63;;;0.73;;
48743;SDS011;34538;48.836;9.174;2022-11-21T04:48:03;1.50;;;0.90;;
48743;SDS011;34538;48.836;9.174;2022-11-21T04:50:30;2.75;;;1.08;;
48743;SDS011;34538;48.836;9.174;2022-11-21T04:52:56;1.15;;;0.55;;
48743;SDS011;34538;48.836;9.174;2022-11-21T04:55:24;1.20;;;0.52;;
48743;SDS011;34538;48.836;9.174;2022-11-21T05:00:22;1.23;;;0.30;;
48743;SDS011;34538;48.836;9.174;2022-11-21T05:02:49;1.23;;;0.70;;
48743;SDS011;34538;48.836;9.174;2022-11-21T05:05:16;0.47;;;0.45;;
48743;SDS011;34538;48.836;9.174;2022-11-21T05:07:43;0.75;;;0.40;;
48743;SDS011;34538;48.836;9.174;2022-11-21T05:10:10;1.23;;;0.55;;
48743;SDS011;34538;48.836;9.174;2022-11-21T05:12:37;1.40;;;0.60;;
48743;SDS011;34538;48.836;9.174;2022-11-21T05:15:25;1.75;;;0.60;;
48743;SDS011;34538;48.836;9.174;2022-11-21T05:17:52;0.88;;;0.57;;
48743;SDS011;34538;48.836;9.174;2022-11-21T05:20:19;1.45;;;0.43;;
48743;SDS011;34538;48.836;9.174;2022-11-21T05:22:49;4.93;;;0.60;;
48743;SDS011;34538;48.836;9.174;2022-11-21T05:25:17;3.70;;;0.70;;
48743;SDS011;34538;48.836;9.174;2022-11-21T05:27:44;2.35;;;1.00;;
48743;SDS011;34538;48.836;9.174;2022-11-21T05:30:11;0.73;;;0.68;;
48743;SDS011;34538;48.836;9.174;2022-11-21T05:32:39;1.77;;;0.70;;
48743;SDS011;34538;48.836;9.174;2022-11-21T05:35:06;1.38;;;0.75;;
48743;SDS011;34538;48.836;9.174;2022-11-21T05:37:33;2.55;;;1.00;;
48743;SDS011;34538;48.836;9.174;2022-11-21T05:40:00;1.40;;;0.90;;
48743;SDS011;34538;48.836;9.174;2022-11-21T05:42:27;2.33;;;0.85;;
48743;SDS011;34538;48.836;9.174;2022-11-21T05:45:11;2.88;;;1.27;;
48743;SDS011;34538;48.836;9.174;2022-11-21T05:47:41;5.60;;;1.67;;
48743;SDS011;34538;48.836;9.174;2022-11-21T05:50:08;2.00;;;1.50;;
48743;SDS011;34538;48.836;9.174;2022-11-21T05:52:35;3.55;;;1.40;;
48743;SDS011;34538;48.836;9.174;2022-11-21T05:55:01;2.92;;;1.48;;
48743;SDS011;34538;48.836;9.174;2022-11-21T05:57:29;1.83;;;1.25;;
48743;SDS011;34538;48.836;9.174;2022-11-21T05:59:56;2.65;;;1.10;;
48743;SDS011;34538;48.836;9.174;2022-11-21T06:02:23;3.65;;;1.33;;
48743;SDS011;34538;48.836;9.174;2022-11-21T06:05:08;3.20;;;1.20;;
48743;SDS011;34538;48.836;9.174;2022-11-21T06:07:35;2.30;;;1.23;;
48743;SDS011;34538;48.836;9.174;2022-11-21T06:10:02;2.08;;;1.20;;
48743;SDS011;34538;48.836;9.174;2022-11-21T06:12:30;3.65;;;0.85;;
48743;SDS011;34538;48.836;9.174;2022-11-21T06:14:57;3.78;;;1.33;;
48743;SDS011;34538;48.836;9.174;2022-11-21T06:17:24;4.35;;;1.73;;
48743;SDS011;34538;48.836;9.174;2022-11-21T06:19:50;1.92;;;1.10;;
48743;SDS011;34538;48.836;9.174;2022-11-21T06:22:19;2.05;;;1.27;;
48743;SDS011;34538;48.836;9.174;2022-11-21T06:24:45;1.42;;;1.05;;
48743;SDS011;34538;48.836;9.174;2022-11-21T06:27:12;3.47;;;1.48;;
48743;SDS011;34538;48.836;9.174;2022-11-21T06:29:39;3.30;;;1.27;;
48743;SDS011;34538;48.836;9.174;2022-11-21T06:32:06;2.60;;;1.02;;
48743;SDS011;34538;48.836;9.174;2022-11-21T06:34:33;5.72;;;1.20;;
48743;SDS011;34538;48.836;9.174;2022-11-21T06:36:59;3.60;;;1.10;;
48743;SDS011;34538;48.836;9.174;2022-11-21T06:39:32;1.13;;;0.70;;
48743;SDS011;34538;48.836;9.174;2022-11-21T06:42:00;3.92;;;1.20;;
48743;SDS011;34538;48.836;9.174;2022-11-21T06:44:27;3.25;;;1.00;;
48743;SDS011;34538;48.836;9.174;2022-11-21T06:46:54;1.63;;;1.00;;
48743;SDS011;34538;48.836;9.174;2022-11-21T06:49:21;2.65;;;1.00;;
48743;SDS011;34538;48.836;9.174;2022-11-21T06:51:48;2.28;;;1.25;;
48743;SDS011;34538;48.836;9.174;2022-11-21T06:54:15;3.00;;;1.10;;
48743;SDS011;34538;48.836;9.174;2022-11-21T06:56:43;1.48;;;0.80;;
48743;SDS011;34538;48.836;9.174;2022-11-21T06:59:10;2.45;;;0.82;;
48743;SDS011;34538;48.836;9.174;2022-11-21T07:01:37;2.80;;;1.00;;
48743;SDS011;34538;48.836;9.174;2022-11-21T07:04:04;2.50;;;1.02;;
48743;SDS011;34538;48.836;9.174;2022-11-21T07:06:31;3.05;;;1.02;;
48743;SDS011;34538;48.836;9.174;2022-11-21T07:08:59;4.85;;;1.48;;
48743;SDS011;34538;48.836;9.174;2022-11-21T07:11:26;6.47;;;1.40;;
48743;SDS011;34538;48.836;9.174;2022-11-21T07:13:54;1.58;;;0.88;;
48743;SDS011;34538;48.836;9.174;2022-11-21T07:16:20;1.52;;;1.23;;
48743;SDS011;34538;48.836;9.174;2022-11-21T07:18:50;3.28;;;0.90;;
48743;SDS011;34538;48.836;9.174;2022-11-21T07:21:16;3.05;;;1.27;;
48743;SDS011;34538;48.836;9.174;2022-11-21T07:23:43;3.92;;;1.17;;
48743;SDS011;34538;48.836;9.174;2022-11-21T07:26:10;3.15;;;1.30;;
48743;SDS011;34538;48.836;9.174;2022-11-21T07:28:37;3.78;;;1.27;;
48743;SDS011;34538;48.836;9.174;2022-11-21T07:31:05;2.22;;;1.20;;
48743;SDS011;34538;48.836;9.174;2022-11-21T07:33:34;2.88;;;1.45;;
48743;SDS011;34538;48.836;9.174;2022-11-21T07:36:01;8.88;;;1.58;;
48743;SDS011;34538;48.836;9.174;2022-11-21T07:38:29;4.32;;;1.25;;
48743;SDS011;34538;48.836;9.174;2022-11-21T07:40:56;1.63;;;1.00;;
48743;SDS011;34538;48.836;9.174;2022-11-21T07:43:23;3.85;;;1.35;;
48743;SDS011;34538;48.836;9.174;2022-11-21T07:45:49;4.00;;;1.20;;
48743;SDS011;34538;48.836;9.174;2022-11-21T07:48:17;2.25;;;1.20;;
48743;SDS011;34538;48.836;9.174;2022-11-21T07:50:44;3.50;;;1.50;;
48743;SDS011;34538;48.836;9.174;2022-11-21T07:53:11;1.70;;;1.00;;
48743;SDS011;34538;48.836;9.174;2022-11-21T07:55:38;3.33;;;1.20;;
48743;SDS011;34538;48.836;9.174;2022-11-21T07:58:06;5.85;;;1.40;;
48743;SDS011;34538;48.836;9.174;2022-11-21T08:00:35;2.15;;;1.38;;
48743;SDS011;34538;48.836;9.174;2022-11-21T08:03:03;4.80;;;1.63;;
48743;SDS011;34538;48.836;9.174;2022-11-21T08:05:34;3.92;;;1.55;;
48743;SDS011;34538;48.836;9.174;2022-11-21T08:08:01;2.90;;;1.55;;
48743;SDS011;34538;48.836;9.174;2022-11-21T08:10:28;5.13;;;1.90;;
48743;SDS011;34538;48.836;9.174;2022-11-21T08:12:55;4.57;;;1.70;;
48743;SDS011;34538;48.836;9.174;2022-11-21T08:15:22;3.17;;;1.33;;
48743;SDS011;34538;48.836;9.174;2022-11-21T08:17:49;4.97;;;2.25;;
48743;SDS011;34538;48.836;9.174;2022-11-21T08:20:15;5.03;;;2.28;;
48743;SDS011;34538;48.836;9.174;2022-11-21T08:22:44;3.63;;;1.45;;
48743;SDS011;34538;48.836;9.174;2022-11-21T08:25:11;2.65;;;1.15;;
48743;SDS011;34538;48.836;9.174;2022-11-21T08:27:38;5.57;;;1.40;;
48743;SDS011;34538;48.836;9.174;2022-11-21T08:30:06;5.32;;;1.40;;
48743;SDS011;34538;48.836;9.174;2022-11-21T08:32:35;5.05;;;1.67;;
48743;SDS011;34538;48.836;9.174;2022-11-21T08:35:02;4.18;;;1.60;;
48743;SDS011;34538;48.836;9.174;2022-11-21T08:37:29;4.43;;;1.67;;
48743;SDS011;34538;48.836;9.174;2022-11-21T08:39:57;2.95;;;1.40;;
48743;SDS011;34538;48.836;9.174;2022-11-21T08:42:25;2.45;;;1.10;;
48743;SDS011;34538;48.836;9.174;2022-11-21T08:44:52;4.68;;;1.85;;
48743;SDS011;34538;48.836;9.174;2022-11-21T08:47:18;5.18;;;0.82;;
48743;SDS011;34538;48.836;9.174;2022-11-21T08:49:45;3.08;;;1.25;;
48743;SDS011;34538;48.836;9.174;2022-11-21T08:52:12;4.45;;;0.90;;
48743;SDS011;34538;48.836;9.174;2022-11-21T08:54:41;3.83;;;0.90;;
48743;SDS011;34538;48.836;9.174;2022-11-21T08:57:09;4.97;;;1.42;;
48743;SDS011;34538;48.836;9.174;2022-11-21T08:59:36;2.55;;;1.00;;
48743;SDS011;34538;48.836;9.174;2022-11-21T09:02:03;3.72;;;0.82;;
48743;SDS011;34538;48.836;9.174;2022-11-21T09:04:30;5.60;;;1.13;;
48743;SDS011;34538;48.836;9.174;2022-11-21T09:06:57;5.38;;;1.02;;
48743;SDS011;34538;48.836;9.174;2022-11-21T09:09:24;2.92;;;0.80;;
48743;SDS011;34538;48.836;9.174;2022-11-21T09:11:51;3.35;;;0.70;;
48743;SDS011;34538;48.836;9.174;2022-11-21T09:14:19;2.17;;;0.70;;
48743;SDS011;34538;48.836;9.174;2022-11-21T09:17:04;3.92;;;1.27;;
48743;SDS011;34538;48.836;9.174;2022-11-21T09:19:49;4.40;;;1.23;;
48743;SDS011;34538;48.836;9.174;2022-11-21T09:22:15;5.28;;;0.90;;
48743;SDS011;34538;48.836;9.174;2022-11-21T09:24:42;2.88;;;1.00;;
48743;SDS011;34538;48.836;9.174;2022-11-21T09:27:09;5.72;;;1.15;;
48743;SDS011;34538;48.836;9.174;2022-11-21T09:29:37;2.85;;;0.90;;
48743;SDS011;34538;48.836;9.174;2022-11-21T09:32:04;2.95;;;1.00;;
48743;SDS011;34538;48.836;9.174;2022-11-21T09:34:31;4.40;;;1.30;;
48743;SDS011;34538;48.836;9.174;2022-11-21T09:36:58;7.53;;;1.90;;
48743;SDS011;34538;48.836;9.174;2022-11-21T09:39:25;4.05;;;0.90;;
48743;SDS011;34538;48.836;9.174;2022-11-21T09:41:54;2.30;;;1.00;;
48743;SDS011;34538;48.836;9.174;2022-11-21T09:47:31;3.75;;;0.77;;
48743;SDS011;34538;48.836;9.174;2022-11-21T09:50:00;2.35;;;0.70;;
48743;SDS011;34538;48.836;9.174;2022-11-21T09:52:31;3.65;;;1.35;;
48743;SDS011;34538;48.836;9.174;2022-11-21T09:55:04;2.58;;;0.80;;
48743;SDS011;34538;48.836;9.174;2022-11-21T09:57:32;1.05;;;0.70;;
48743;SDS011;34538;48.836;9.174;2022-11-21T10:00:03;4.15;;;1.15;;
48743;SDS011;34538;48.836;9.174;2022-11-21T10:02:39;2.20;;;0.63;;
48743;SDS011;34538;48.836;9.174;2022-11-21T10:05:10;2.90;;;1.00;;
48743;SDS011;34538;48.836;9.174;2022-11-21T10:07:38;1.90;;;0.90;;
48743;SDS011;34538;48.836;9.174;2022-11-21T10:10:16;4.63;;;0.98;;
48743;SDS011;34538;48.836;9.174;2022-11-21T10:13:00;4.20;;;0.93;;
48743;SDS011;34538;48.836;9.174;2022-11-21T10:15:45;3.08;;;1.08;;
48743;SDS011;34538;48.836;9.174;2022-11-21T10:18:30;1.05;;;0.65;;
48743;SDS011;34538;48.836;9.174;2022-11-21T10:21:24;3.92;;;0.82;;
48743;SDS011;34538;48.836;9.174;2022-11-21T10:24:11;6.57;;;0.93;;
48743;SDS011;34538;48.836;9.174;2022-11-21T10:26:51;4.95;;;1.05;;
48743;SDS011;34538;48.836;9.174;2022-11-21T10:29:21;4.70;;;0.82;;
48743;SDS011;34538;48.836;9.174;2022-11-21T10:31:52;3.88;;;1.25;;
48743;SDS011;34538;48.836;9.174;2022-11-21T10:34:23;2.40;;;0.98;;
48743;SDS011;34538;48.836;9.174;2022-11-21T10:36:55;3.25;;;0.82;;
48743;SDS011;34538;48.836;9.174;2022-11-21T10:39:26;2.75;;;0.70;;
48743;SDS011;34538;48.836;9.174;2022-11-21T10:42:00;6.65;;;0.98;;
48743;SDS011;34538;48.836;9.174;2022-11-21T10:44:30;3.20;;;0.88;;
48743;SDS011;34538;48.836;9.174;2022-11-21T10:47:17;1.50;;;0.82;;
48743;SDS011;34538;48.836;9.174;2022-11-21T10:49:52;1.83;;;0.80;;
48743;SDS011;34538;48.836;9.174;2022-11-21T10:52:25;3.45;;;0.88;;
48743;SDS011;34538;48.836;9.174;2022-11-21T10:55:04;4.82;;;0.80;;
48743;SDS011;34538;48.836;9.174;2022-11-21T10:57:35;2.20;;;0.70;;
48743;SDS011;34538;48.836;9.174;2022-11-21T11:00:13;4.60;;;0.65;;
48743;SDS011;34538;48.836;9.174;2022-11-21T11:03:04;2.40;;;0.85;;
48743;SDS011;34538;48.836;9.174;2022-11-21T11:05:33;3.20;;;0.65;;
48743;SDS011;34538;48.836;9.174;2022-11-21T11:08:03;2.30;;;0.50;;
48743;SDS011;34538;48.836;9.174;2022-11-21T11:10:36;2.83;;;0.85;;
48743;SDS011;34538;48.836;9.174;2022-11-21T11:13:10;6.00;;;1.00;;
48743;SDS011;34538;48.836;9.174;2022-11-21T11:15:59;2.55;;;1.00;;
48743;SDS011;34538;48.836;9.174;2022-11-21T11:18:31;9.57;;;4.80;;
48743;SDS011;34538;48.836;9.174;2022-11-21T11:21:13;8.85;;;3.65;;
48743;SDS011;34538;48.836;9.174;2022-11-21T11:23:41;7.10;;;2.30;;
48743;SDS011;34538;48.836;9.174;2022-11-21T11:26:19;6.60;;;2.03;;
48743;SDS011;34538;48.836;9.174;2022-11-21T11:28:51;11.07;;;3.05;;
48743;SDS011;34538;48.836;9.174;2022-11-21T11:31:20;15.93;;;6.13;;
48743;SDS011;34538;48.836;9.174;2022-11-21T11:33:51;8.25;;;3.17;;
48743;SDS011;34538;48.836;9.174;2022-11-21T11:36:27;5.68;;;1.60;;
48743;SDS011;34538;48.836;9.174;2022-11-21T11:39:03;2.88;;;0.90;;
48743;SDS011;34538;48.836;9.174;2022-11-21T11:41:40;4.97;;;0.95;;
48743;SDS011;34538;48.836;9.174;2022-11-21T11:44:39;5.63;;;0.85;;
48743;SDS011;34538;48.836;9.174;2022-11-21T11:47:28;2.20;;;0.88;;
48743;SDS011;34538;48.836;9.174;2022-11-21T11:50:07;3.03;;;0.80;;
48743;SDS011;34538;48.836;9.174;2022-11-21T11:52:39;2.33;;;0.85;;
48743;SDS011;34538;48.836;9.174;2022-11-21T11:55:15;3.65;;;0.70;;
48743;SDS011;34538;48.836;9.174;2022-11-21T11:57:45;2.40;;;0.80;;
48743;SDS011;34538;48.836;9.174;2022-11-21T12:00:19;2.20;;;0.80;;
48743;SDS011;34538;48.836;9.174;2022-11-21T12:02:54;2.17;;;0.60;;
48743;SDS011;34538;48.836;9.174;2022-11-21T12:05:27;2.28;;;0.60;;
48743;SDS011;34538;48.836;9.174;2022-11-21T12:08:01;2.47;;;1.05;;
48743;SDS011;34538;48.836;9.174;2022-11-21T12:10:32;3.42;;;0.80;;
48743;SDS011;34538;48.836;9.174;2022-11-21T12:13:26;3.88;;;0.80;;
48743;SDS011;34538;48.836;9.174;2022-11-21T12:15:55;3.85;;;1.17;;
48743;SDS011;34538;48.836;9.174;2022-11-21T12:18:27;5.18;;;0.77;;
48743;SDS011;34538;48.836;9.174;2022-11-21T12:21:02;2.55;;;0.60;;
48743;SDS011;34538;48.836;9.174;2022-11-21T12:23:34;2.45;;;0.80;;
48743;SDS011;34538;48.836;9.174;2022-11-21T12:26:09;4.32;;;1.00;;
48743;SDS011;34538;48.836;9.174;2022-11-21T12:28:46;2.53;;;0.70;;
48743;SDS011;34538;48.836;9.174;2022-11-21T12:31:24;1.50;;;0.60;;
48743;SDS011;34538;48.836;9.174;2022-11-21T12:34:02;3.92;;;0.80;;
48743;SDS011;34538;48.836;9.174;2022-11-21T12:36:41;2.35;;;0.75;;
48743;SDS011;34538;48.836;9.174;2022-11-21T12:42:14;3.20;;;1.23;;
48743;SDS011;34538;48.836;9.174;2022-11-21T12:45:13;2.80;;;0.70;;
48743;SDS011;34538;48.836;9.174;2022-11-21T12:48:05;3.80;;;1.20;;
48743;SDS011;34538;48.836;9.174;2022-11-21T12:51:06;3.05;;;0.70;;
48743;SDS011;34538;48.836;9.174;2022-11-21T12:54:02;4.35;;;0.98;;
48743;SDS011;34538;48.836;9.174;2022-11-21T12:56:55;2.88;;;0.82;;
48743;SDS011;34538;48.836;9.174;2022-11-21T12:59:26;3.63;;;0.95;;
48743;SDS011;34538;48.836;9.174;2022-11-21T13:01:57;3.95;;;0.73;;
48743;SDS011;34538;48.836;9.174;2022-11-21T13:04:32;2.67;;;0.55;;
48743;SDS011;34538;48.836;9.174;2022-11-21T13:07:02;4.72;;;0.65;;
48743;SDS011;34538;48.836;9.174;2022-11-21T13:09:33;6.43;;;0.85;;
48743;SDS011;34538;48.836;9.174;2022-11-21T13:12:05;1.75;;;0.82;;
48743;SDS011;34538;48.836;9.174;2022-11-21T13:14:40;3.00;;;0.60;;
48743;SDS011;34538;48.836;9.174;2022-11-21T13:17:13;2.25;;;0.50;;
48743;SDS011;34538;48.836;9.174;2022-11-21T13:19:53;2.53;;;0.70;;
48743;SDS011;34538;48.836;9.174;2022-11-21T13:25:39;2.25;;;0.88;;
48743;SDS011;34538;48.836;9.174;2022-11-21T13:28:27;5.32;;;0.70;;
48743;SDS011;34538;48.836;9.174;2022-11-21T13:31:02;3.05;;;0.60;;
48743;SDS011;34538;48.836;9.174;2022-11-21T13:33:51;3.03;;;0.63;;
48743;SDS011;34538;48.836;9.174;2022-11-21T13:36:37;2.47;;;0.60;;
48743;SDS011;34538;48.836;9.174;2022-11-21T13:42:12;2.28;;;0.50;;
48743;SDS011;34538;48.836;9.174;2022-11-21T13:44:58;1.85;;;0.55;;
48743;SDS011;34538;48.836;9.174;2022-11-21T13:47:48;4.05;;;0.82;;
48743;SDS011;34538;48.836;9.174;2022-11-21T13:50:38;2.95;;;0.68;;
48743;SDS011;34538;48.836;9.174;2022-11-21T13:53:32;2.92;;;0.80;;
48743;SDS011;34538;48.836;9.174;2022-11-21T13:56:28;4.97;;;0.98;;
48743;SDS011;34538;48.836;9.174;2022-11-21T13:59:05;4.18;;;0.85;;
48743;SDS011;34538;48.836;9.174;2022-11-21T14:01:48;3.05;;;0.70;;
48743;SDS011;34538;48.836;9.174;2022-11-21T14:07:26;0.80;;;0.43;;
48743;SDS011;34538;48.836;9.174;2022-11-21T14:09:56;1.75;;;0.60;;
48743;SDS011;34538;48.836;9.174;2022-11-21T14:12:26;3.60;;;0.95;;
48743;SDS011;34538;48.836;9.174;2022-11-21T14:15:09;2.03;;;0.60;;
48743;SDS011;34538;48.836;9.174;2022-11-21T14:17:48;6.25;;;2.35;;
48743;SDS011;34538;48.836;9.174;2022-11-21T14:20:18;1.70;;;0.75;;
48743;SDS011;34538;48.836;9.174;2022-11-21T14:22:51;3.85;;;1.00;;
48743;SDS011;34538;48.836;9.174;2022-11-21T14:25:21;1.45;;;0.80;;
48743;SDS011;34538;48.836;9.174;2022-11-21T14:27:52;1.13;;;0.70;;
48743;SDS011;34538;48.836;9.174;2022-11-21T14:30:29;2.70;;;0.70;;
48743;SDS011;34538;48.836;9.174;2022-11-21T14:33:19;4.72;;;1.10;;
48743;SDS011;34538;48.836;9.174;2022-11-21T14:35:47;5.65;;;1.10;;
48743;SDS011;34538;48.836;9.174;2022-11-21T14:38:16;2.95;;;1.00;;
48743;SDS011;34538;48.836;9.174;2022-11-21T14:40:45;1.35;;;0.60;;
48743;SDS011;34538;48.836;9.174;2022-11-21T14:43:28;3.65;;;0.90;;
48743;SDS011;34538;48.836;9.174;2022-11-21T14:45:57;5.97;;;0.70;;
48743;SDS011;34538;48.836;9.174;2022-11-21T14:48:25;1.13;;;0.40;;
48743;SDS011;34538;48.836;9.174;2022-11-21T14:50:52;1.45;;;0.70;;
48743;SDS011;34538;48.836;9.174;2022-11-21T14:53:22;2.70;;;1.20;;
48743;SDS011;34538;48.836;9.174;2022-11-21T14:55:50;3.38;;;1.10;;
48743;SDS011;34538;48.836;9.174;2022-11-21T14:58:17;6.50;;;1.00;;
48743;SDS011;34538;48.836;9.174;2022-11-21T15:01:03;6.82;;;2.33;;
48743;SDS011;34538;48.836;9.174;2022-11-21T15:03:32;4.45;;;1.50;;
48743;SDS011;34538;48.836;9.174;2022-11-21T15:05:59;5.97;;;1.45;;
48743;SDS011;34538;48.836;9.174;2022-11-21T15:08:27;4.68;;;1.33;;
48743;SDS011;34538;48.836;9.174;2022-11-21T15:10:55;4.20;;;1.15;;
48743;SDS011;34538;48.836;9.174;2022-11-21T15:13:25;4.25;;;1.10;;
48743;SDS011;34538;48.836;9.174;2022-11-21T15:15:58;3.90;;;1.70;;
48743;SDS011;34538;48.836;9.174;2022-11-21T15:18:27;6.18;;;1.80;;
48743;SDS011;34538;48.836;9.174;2022-11-21T15:20:56;6.40;;;2.03;;
48743;SDS011;34538;48.836;9.174;2022-11-21T15:23:25;5.85;;;1.38;;
48743;SDS011;34538;48.836;9.174;2022-11-21T15:25:53;4.70;;;1.60;;
48743;SDS011;34538;48.836;9.174;2022-11-21T15:28:21;3.50;;;1.40;;